Airfield :
LOGIN :

Register | Disclaimer

   EN    FR    IT 

 










Legend :    VFR   Marginal VFR   IFR   Intensive IFR   Very Intensive IFR
Visi :
Ceiling :
>= 8 km
>= 3000ft
5 to 8 km
1000 to 3000 ft
1500m to 5 km
500 to 1000 ft
800 to 1500m
200 to 500 ft
< 800m
< 200 ft
Symbols :   Thunderstorms  Fog  Heavy snow  Heavy precipitations  Wind > 20 kt
SIGMETs :     Misc.  Thunderstorms  Icing  Turbulence  Mountain Waves  Volcanic Ashes






- Airport Elevation : 386 ft
- IATA code : QOE


ETNN - Nörvenich Airforce Base

CURRENT METAR :
  • 291034Z 26025G35KT 9999 FEW019 BKN026 05/00 Q1007 BLU BLU TEMPO WHT

EXPIRED METARs :
  • 291020Z 26021KT 9999 FEW019 BKN026 06/00 Q1007 BLU BLU TEMPO WHT
  • 290820Z 25016KT 9999 SCT019 BKN040 04/00 Q1006 BLU BLU TEMPO WHT

TAF AMD TAF ETNN
Valid from the 29 at 10:00 until the 29 at 18:00 UTC


291040Z 2910/2918 26015G25KT 9999 NSW SCT020 BKN030
TEMPO 2910/2918 27025G35KT 5000 -SHRA SCT010 BKN020CB
PROB30 2910/2918 27028G40KT 3000 SHRA BKN010 BKN020CB BY ETGL



MET'MAP, your aeronautical weather chart ! - Copyright ORBIFLY December 2007 - Disclaimer

ORBIFLY MET'MAP TEAM :

Programming & Development : Alexandra Zaïnal
Concept & original design : Baudouin d'Aumeries
Assistance for programming : Marc-Olivier Méhu
Technical & hardware support : Manuel Goepfert

Contact : metmap@orbifly.com




SOURCES & CREDITS :

   NOAA